sensor_id;sensor_type;location;lat;lon;timestamp;temperature;humidity
35085;SHT85;21267;51.032;6.998;2023-04-25T00:01:38;6.80;84.83
35085;SHT85;21267;51.032;6.998;2023-04-25T00:04:06;6.79;84.90
35085;SHT85;21267;51.032;6.998;2023-04-25T00:06:34;6.76;84.90
35085;SHT85;21267;51.032;6.998;2023-04-25T00:09:06;6.65;85.60
35085;SHT85;21267;51.032;6.998;2023-04-25T00:11:36;6.57;85.81
35085;SHT85;21267;51.032;6.998;2023-04-25T00:14:04;6.53;85.89
35085;SHT85;21267;51.032;6.998;2023-04-25T00:16:31;6.49;86.04
35085;SHT85;21267;51.032;6.998;2023-04-25T00:19:00;6.45;86.00
35085;SHT85;21267;51.032;6.998;2023-04-25T00:21:30;6.45;86.09
35085;SHT85;21267;51.032;6.998;2023-04-25T00:23:58;6.48;86.08
35085;SHT85;21267;51.032;6.998;2023-04-25T00:26:25;6.42;86.13
35085;SHT85;21267;51.032;6.998;2023-04-25T00:28:52;6.44;86.12
35085;SHT85;21267;51.032;6.998;2023-04-25T00:31:20;6.36;86.16
35085;SHT85;21267;51.032;6.998;2023-04-25T00:33:47;6.32;86.34
35085;SHT85;21267;51.032;6.998;2023-04-25T00:36:15;6.42;86.27
35085;SHT85;21267;51.032;6.998;2023-04-25T00:38:43;6.31;86.38
35085;SHT85;21267;51.032;6.998;2023-04-25T00:41:10;6.26;86.47
35085;SHT85;21267;51.032;6.998;2023-04-25T00:43:37;6.31;86.43
35085;SHT85;21267;51.032;6.998;2023-04-25T00:46:04;6.32;86.24
35085;SHT85;21267;51.032;6.998;2023-04-25T00:48:31;6.25;86.54
35085;SHT85;21267;51.032;6.998;2023-04-25T00:50:58;6.35;86.40
35085;SHT85;21267;51.032;6.998;2023-04-25T00:53:26;6.34;86.63
35085;SHT85;21267;51.032;6.998;2023-04-25T00:55:54;6.49;86.20
35085;SHT85;21267;51.032;6.998;2023-04-25T00:58:21;6.49;86.11
35085;SHT85;21267;51.032;6.998;2023-04-25T01:00:50;6.55;86.01
35085;SHT85;21267;51.032;6.998;2023-04-25T01:03:18;6.59;86.05
35085;SHT85;21267;51.032;6.998;2023-04-25T01:05:49;6.66;85.84
35085;SHT85;21267;51.032;6.998;2023-04-25T01:08:17;6.77;85.36
35085;SHT85;21267;51.032;6.998;2023-04-25T01:10:43;6.79;85.29
35085;SHT85;21267;51.032;6.998;2023-04-25T01:13:10;6.93;84.83
35085;SHT85;21267;51.032;6.998;2023-04-25T01:15:37;6.84;85.02
35085;SHT85;21267;51.032;6.998;2023-04-25T01:18:05;7.03;84.63
35085;SHT85;21267;51.032;6.998;2023-04-25T01:20:32;7.01;84.46
35085;SHT85;21267;51.032;6.998;2023-04-25T01:22:59;6.99;84.56
35085;SHT85;21267;51.032;6.998;2023-04-25T01:25:26;7.07;84.47
35085;SHT85;21267;51.032;6.998;2023-04-25T01:27:53;7.04;84.49
35085;SHT85;21267;51.032;6.998;2023-04-25T01:30:20;7.14;84.32
35085;SHT85;21267;51.032;6.998;2023-04-25T01:32:47;7.11;84.48
35085;SHT85;21267;51.032;6.998;2023-04-25T01:35:14;7.13;84.55
35085;SHT85;21267;51.032;6.998;2023-04-25T01:37:42;7.07;84.65
35085;SHT85;21267;51.032;6.998;2023-04-25T01:40:10;7.10;84.91
35085;SHT85;21267;51.032;6.998;2023-04-25T01:42:39;7.07;84.78
35085;SHT85;21267;51.032;6.998;2023-04-25T01:45:08;7.03;84.90
35085;SHT85;21267;51.032;6.998;2023-04-25T01:47:35;6.94;85.09
35085;SHT85;21267;51.032;6.998;2023-04-25T01:50:03;6.82;85.44
35085;SHT85;21267;51.032;6.998;2023-04-25T01:52:30;6.89;85.58
35085;SHT85;21267;51.032;6.998;2023-04-25T01:54:57;6.80;85.28
35085;SHT85;21267;51.032;6.998;2023-04-25T01:57:25;6.80;85.41
35085;SHT85;21267;51.032;6.998;2023-04-25T01:59:58;6.82;85.21
35085;SHT85;21267;51.032;6.998;2023-04-25T02:02:25;6.82;85.02
35085;SHT85;21267;51.032;6.998;2023-04-25T02:04:53;6.77;85.13
35085;SHT85;21267;51.032;6.998;2023-04-25T02:07:20;6.66;85.83
35085;SHT85;21267;51.032;6.998;2023-04-25T02:09:49;6.56;86.16
35085;SHT85;21267;51.032;6.998;2023-04-25T02:12:15;6.59;86.24
35085;SHT85;21267;51.032;6.998;2023-04-25T02:14:42;6.72;85.61
35085;SHT85;21267;51.032;6.998;2023-04-25T02:17:10;6.68;85.68
35085;SHT85;21267;51.032;6.998;2023-04-25T02:19:39;6.76;85.45
35085;SHT85;21267;51.032;6.998;2023-04-25T02:22:06;6.76;85.18
35085;SHT85;21267;51.032;6.998;2023-04-25T02:24:32;6.80;84.99
35085;SHT85;21267;51.032;6.998;2023-04-25T02:27:00;6.77;85.16
35085;SHT85;21267;51.032;6.998;2023-04-25T02:29:29;6.87;85.04
35085;SHT85;21267;51.032;6.998;2023-04-25T02:31:57;6.82;85.37
35085;SHT85;21267;51.032;6.998;2023-04-25T02:34:24;6.84;85.37
35085;SHT85;21267;51.032;6.998;2023-04-25T02:36:51;6.80;85.74
35085;SHT85;21267;51.032;6.998;2023-04-25T02:39:17;6.79;85.77
35085;SHT85;21267;51.032;6.998;2023-04-25T02:41:44;6.73;85.61
35085;SHT85;21267;51.032;6.998;2023-04-25T02:44:11;6.76;85.38
35085;SHT85;21267;51.032;6.998;2023-04-25T02:46:38;6.82;84.64
35085;SHT85;21267;51.032;6.998;2023-04-25T02:49:06;6.80;84.84
35085;SHT85;21267;51.032;6.998;2023-04-25T02:51:35;6.82;84.77
35085;SHT85;21267;51.032;6.998;2023-04-25T02:54:04;6.86;84.57
35085;SHT85;21267;51.032;6.998;2023-04-25T02:56:32;6.87;84.61
35085;SHT85;21267;51.032;6.998;2023-04-25T02:58:58;6.89;84.85
35085;SHT85;21267;51.032;6.998;2023-04-25T03:01:25;6.86;84.66
35085;SHT85;21267;51.032;6.998;2023-04-25T03:03:52;6.84;84.55
35085;SHT85;21267;51.032;6.998;2023-04-25T03:06:20;6.80;84.60
35085;SHT85;21267;51.032;6.998;2023-04-25T03:08:47;6.86;84.44
35085;SHT85;21267;51.032;6.998;2023-04-25T03:11:14;6.86;84.26
35085;SHT85;21267;51.032;6.998;2023-04-25T03:13:40;6.89;84.19
35085;SHT85;21267;51.032;6.998;2023-04-25T03:16:07;6.93;84.15
35085;SHT85;21267;51.032;6.998;2023-04-25T03:18:34;6.90;84.05
35085;SHT85;21267;51.032;6.998;2023-04-25T03:21:00;6.94;83.76
35085;SHT85;21267;51.032;6.998;2023-04-25T03:23:27;6.86;83.92
35085;SHT85;21267;51.032;6.998;2023-04-25T03:25:54;6.87;84.13
35085;SHT85;21267;51.032;6.998;2023-04-25T03:28:21;6.82;84.02
35085;SHT85;21267;51.032;6.998;2023-04-25T03:30:50;6.76;84.04
35085;SHT85;21267;51.032;6.998;2023-04-25T03:33:17;6.80;83.92
35085;SHT85;21267;51.032;6.998;2023-04-25T03:35:44;6.89;83.92
35085;SHT85;21267;51.032;6.998;2023-04-25T03:38:13;6.79;84.25
35085;SHT85;21267;51.032;6.998;2023-04-25T03:40:40;6.80;84.13
35085;SHT85;21267;51.032;6.998;2023-04-25T03:43:06;6.82;84.19
35085;SHT85;21267;51.032;6.998;2023-04-25T03:45:34;6.73;84.49
35085;SHT85;21267;51.032;6.998;2023-04-25T03:48:01;6.83;84.28
35085;SHT85;21267;51.032;6.998;2023-04-25T03:50:28;6.86;84.49
35085;SHT85;21267;51.032;6.998;2023-04-25T03:52:55;6.82;84.66
35085;SHT85;21267;51.032;6.998;2023-04-25T03:55:21;6.87;84.78
35085;SHT85;21267;51.032;6.998;2023-04-25T03:57:48;6.90;84.84
35085;SHT85;21267;51.032;6.998;2023-04-25T04:00:15;6.87;84.85
35085;SHT85;21267;51.032;6.998;2023-04-25T04:02:42;6.99;84.98
35085;SHT85;21267;51.032;6.998;2023-04-25T04:05:10;6.93;85.11
35085;SHT85;21267;51.032;6.998;2023-04-25T04:07:37;6.87;85.21
35085;SHT85;21267;51.032;6.998;2023-04-25T04:10:12;6.87;85.66
35085;SHT85;21267;51.032;6.998;2023-04-25T04:12:39;6.84;85.77
35085;SHT85;21267;51.032;6.998;2023-04-25T04:15:07;6.89;85.82
35085;SHT85;21267;51.032;6.998;2023-04-25T04:17:35;6.90;86.01
35085;SHT85;21267;51.032;6.998;2023-04-25T04:20:02;6.86;86.11
35085;SHT85;21267;51.032;6.998;2023-04-25T04:22:30;6.96;86.03
35085;SHT85;21267;51.032;6.998;2023-04-25T04:24:56;6.89;86.25
35085;SHT85;21267;51.032;6.998;2023-04-25T04:27:24;6.89;86.47
35085;SHT85;21267;51.032;6.998;2023-04-25T04:29:50;6.92;86.44
35085;SHT85;21267;51.032;6.998;2023-04-25T04:32:18;6.99;86.46
35085;SHT85;21267;51.032;6.998;2023-04-25T04:34:45;7.00;86.27
35085;SHT85;21267;51.032;6.998;2023-04-25T04:37:13;6.92;86.52
35085;SHT85;21267;51.032;6.998;2023-04-25T04:39:41;6.96;86.40
35085;SHT85;21267;51.032;6.998;2023-04-25T04:42:07;6.94;86.34
35085;SHT85;21267;51.032;6.998;2023-04-25T04:44:35;7.03;86.47
35085;SHT85;21267;51.032;6.998;2023-04-25T04:47:03;7.04;86.43
35085;SHT85;21267;51.032;6.998;2023-04-25T04:49:33;7.05;86.25
35085;SHT85;21267;51.032;6.998;2023-04-25T04:52:00;7.18;86.04
35085;SHT85;21267;51.032;6.998;2023-04-25T04:54:27;7.18;86.19
35085;SHT85;21267;51.032;6.998;2023-04-25T04:56:55;7.14;86.07
35085;SHT85;21267;51.032;6.998;2023-04-25T04:59:22;7.24;86.18
35085;SHT85;21267;51.032;6.998;2023-04-25T05:01:49;7.21;86.21
35085;SHT85;21267;51.032;6.998;2023-04-25T05:04:16;7.14;86.47
35085;SHT85;21267;51.032;6.998;2023-04-25T05:06:43;7.35;86.45
35085;SHT85;21267;51.032;6.998;2023-04-25T05:09:14;7.05;86.32
35085;SHT85;21267;51.032;6.998;2023-04-25T05:11:41;7.11;86.12
35085;SHT85;21267;51.032;6.998;2023-04-25T05:14:08;7.08;86.25
35085;SHT85;21267;51.032;6.998;2023-04-25T05:16:36;7.07;86.24
35085;SHT85;21267;51.032;6.998;2023-04-25T05:19:02;7.05;85.92
35085;SHT85;21267;51.032;6.998;2023-04-25T05:21:29;7.05;85.87
35085;SHT85;21267;51.032;6.998;2023-04-25T05:23:57;6.99;86.06
35085;SHT85;21267;51.032;6.998;2023-04-25T05:26:24;7.03;86.23
35085;SHT85;21267;51.032;6.998;2023-04-25T05:28:51;7.01;86.23
35085;SHT85;21267;51.032;6.998;2023-04-25T05:31:17;6.93;86.39
35085;SHT85;21267;51.032;6.998;2023-04-25T05:33:44;7.10;86.25
35085;SHT85;21267;51.032;6.998;2023-04-25T05:36:10;7.21;85.78
35085;SHT85;21267;51.032;6.998;2023-04-25T05:38:37;7.21;85.85
35085;SHT85;21267;51.032;6.998;2023-04-25T05:41:05;7.25;85.61
35085;SHT85;21267;51.032;6.998;2023-04-25T05:43:33;7.34;85.28
35085;SHT85;21267;51.032;6.998;2023-04-25T05:46:00;7.30;85.02
35085;SHT85;21267;51.032;6.998;2023-04-25T05:48:27;7.32;84.87
35085;SHT85;21267;51.032;6.998;2023-04-25T05:50:58;7.34;84.94
35085;SHT85;21267;51.032;6.998;2023-04-25T05:53:25;7.38;84.98
35085;SHT85;21267;51.032;6.998;2023-04-25T05:55:52;7.38;84.93
35085;SHT85;21267;51.032;6.998;2023-04-25T05:58:19;7.48;84.47
35085;SHT85;21267;51.032;6.998;2023-04-25T06:00:46;7.50;84.14
35085;SHT85;21267;51.032;6.998;2023-04-25T06:03:12;7.48;84.47
35085;SHT85;21267;51.032;6.998;2023-04-25T06:05:45;7.48;84.17
35085;SHT85;21267;51.032;6.998;2023-04-25T06:08:12;7.48;84.10
35085;SHT85;21267;51.032;6.998;2023-04-25T06:10:39;7.51;83.66
35085;SHT85;21267;51.032;6.998;2023-04-25T06:13:06;7.56;83.59
35085;SHT85;21267;51.032;6.998;2023-04-25T06:15:32;7.58;83.08
35085;SHT85;21267;51.032;6.998;2023-04-25T06:18:00;7.75;82.55
35085;SHT85;21267;51.032;6.998;2023-04-25T06:20:27;7.68;81.42
35085;SHT85;21267;51.032;6.998;2023-04-25T06:22:54;7.82;81.01
35085;SHT85;21267;51.032;6.998;2023-04-25T06:25:21;7.89;80.73
35085;SHT85;21267;51.032;6.998;2023-04-25T06:27:47;7.92;80.50
35085;SHT85;21267;51.032;6.998;2023-04-25T06:33:39;7.97;79.26
35085;SHT85;21267;51.032;6.998;2023-04-25T06:36:06;8.00;79.58
35085;SHT85;21267;51.032;6.998;2023-04-25T06:38:33;8.23;79.10
35085;SHT85;21267;51.032;6.998;2023-04-25T06:41:01;8.38;78.56
35085;SHT85;21267;51.032;6.998;2023-04-25T06:43:28;8.38;77.79
35085;SHT85;21267;51.032;6.998;2023-04-25T06:45:55;8.57;77.59
35085;SHT85;21267;51.032;6.998;2023-04-25T06:48:22;8.54;77.65
35085;SHT85;21267;51.032;6.998;2023-04-25T06:50:49;8.45;77.51
35085;SHT85;21267;51.032;6.998;2023-04-25T06:53:15;8.57;76.93
35085;SHT85;21267;51.032;6.998;2023-04-25T06:55:42;8.41;77.02
35085;SHT85;21267;51.032;6.998;2023-04-25T06:58:08;8.51;77.33
35085;SHT85;21267;51.032;6.998;2023-04-25T07:00:35;8.68;76.96
35085;SHT85;21267;51.032;6.998;2023-04-25T07:03:02;8.62;76.89
35085;SHT85;21267;51.032;6.998;2023-04-25T07:05:29;8.61;76.30
35085;SHT85;21267;51.032;6.998;2023-04-25T07:07:56;8.57;76.73
35085;SHT85;21267;51.032;6.998;2023-04-25T07:10:24;8.75;76.57
35085;SHT85;21267;51.032;6.998;2023-04-25T07:12:51;8.72;76.04
35085;SHT85;21267;51.032;6.998;2023-04-25T07:15:18;8.86;76.04
35085;SHT85;21267;51.032;6.998;2023-04-25T07:17:45;8.82;76.68
35085;SHT85;21267;51.032;6.998;2023-04-25T07:20:12;8.50;77.33
35085;SHT85;21267;51.032;6.998;2023-04-25T07:22:38;8.62;77.87
35085;SHT85;21267;51.032;6.998;2023-04-25T07:25:05;8.85;77.51
35085;SHT85;21267;51.032;6.998;2023-04-25T07:27:32;8.57;77.48
35085;SHT85;21267;51.032;6.998;2023-04-25T07:29:59;8.55;77.20
35085;SHT85;21267;51.032;6.998;2023-04-25T07:32:26;8.36;77.54
35085;SHT85;21267;51.032;6.998;2023-04-25T07:34:53;8.50;77.05
35085;SHT85;21267;51.032;6.998;2023-04-25T07:37:20;8.53;76.34
35085;SHT85;21267;51.032;6.998;2023-04-25T07:39:46;8.51;75.89
35085;SHT85;21267;51.032;6.998;2023-04-25T07:42:14;8.82;76.05
35085;SHT85;21267;51.032;6.998;2023-04-25T07:44:40;8.92;74.36
35085;SHT85;21267;51.032;6.998;2023-04-25T07:47:09;8.88;73.72
35085;SHT85;21267;51.032;6.998;2023-04-25T07:49:37;8.99;73.65
35085;SHT85;21267;51.032;6.998;2023-04-25T07:52:04;9.02;71.55
35085;SHT85;21267;51.032;6.998;2023-04-25T07:54:32;9.43;71.83
35085;SHT85;21267;51.032;6.998;2023-04-25T07:56:59;9.85;70.87
35085;SHT85;21267;51.032;6.998;2023-04-25T07:59:26;10.18;70.52
35085;SHT85;21267;51.032;6.998;2023-04-25T08:01:55;10.23;69.56
35085;SHT85;21267;51.032;6.998;2023-04-25T08:04:24;10.23;68.81
35085;SHT85;21267;51.032;6.998;2023-04-25T08:06:52;10.16;69.06
35085;SHT85;21267;51.032;6.998;2023-04-25T08:09:20;10.39;68.51
35085;SHT85;21267;51.032;6.998;2023-04-25T08:11:48;10.02;68.70
35085;SHT85;21267;51.032;6.998;2023-04-25T08:14:15;9.54;69.29
35085;SHT85;21267;51.032;6.998;2023-04-25T08:16:42;9.34;69.36
35085;SHT85;21267;51.032;6.998;2023-04-25T08:19:09;9.19;70.04
35085;SHT85;21267;51.032;6.998;2023-04-25T08:21:36;9.18;70.40
35085;SHT85;21267;51.032;6.998;2023-04-25T08:24:03;9.20;69.57
35085;SHT85;21267;51.032;6.998;2023-04-25T08:26:30;9.36;69.29
35085;SHT85;21267;51.032;6.998;2023-04-25T08:28:57;9.37;69.63
35085;SHT85;21267;51.032;6.998;2023-04-25T08:31:23;9.13;69.28
35085;SHT85;21267;51.032;6.998;2023-04-25T08:33:51;8.96;70.12
35085;SHT85;21267;51.032;6.998;2023-04-25T08:36:20;8.93;70.81
35085;SHT85;21267;51.032;6.998;2023-04-25T08:39:04;8.99;70.21
35085;SHT85;21267;51.032;6.998;2023-04-25T08:41:31;8.82;70.31
35085;SHT85;21267;51.032;6.998;2023-04-25T08:44:00;8.85;70.19
35085;SHT85;21267;51.032;6.998;2023-04-25T08:46:27;8.81;70.04
35085;SHT85;21267;51.032;6.998;2023-04-25T08:49:00;8.83;70.77
35085;SHT85;21267;51.032;6.998;2023-04-25T08:51:31;8.88;70.75
35085;SHT85;21267;51.032;6.998;2023-04-25T08:54:08;8.93;71.57
35085;SHT85;21267;51.032;6.998;2023-04-25T08:56:57;8.82;71.89
35085;SHT85;21267;51.032;6.998;2023-04-25T08:59:24;8.89;72.32
35085;SHT85;21267;51.032;6.998;2023-04-25T09:01:51;9.01;71.65
35085;SHT85;21267;51.032;6.998;2023-04-25T09:04:18;9.26;70.83
35085;SHT85;21267;51.032;6.998;2023-04-25T09:06:47;9.46;69.76
35085;SHT85;21267;51.032;6.998;2023-04-25T09:09:14;9.48;69.11
35085;SHT85;21267;51.032;6.998;2023-04-25T09:11:42;10.05;65.91
35085;SHT85;21267;51.032;6.998;2023-04-25T09:14:13;10.28;62.59
35085;SHT85;21267;51.032;6.998;2023-04-25T09:17:13;11.27;60.62
35085;SHT85;21267;51.032;6.998;2023-04-25T09:19:39;10.69;61.03
35085;SHT85;21267;51.032;6.998;2023-04-25T09:22:08;10.33;62.38
35085;SHT85;21267;51.032;6.998;2023-04-25T09:27:13;9.75;64.81
35085;SHT85;21267;51.032;6.998;2023-04-25T09:29:44;9.87;65.54
35085;SHT85;21267;51.032;6.998;2023-04-25T09:32:22;9.81;65.65
35085;SHT85;21267;51.032;6.998;2023-04-25T09:34:55;10.01;65.95
35085;SHT85;21267;51.032;6.998;2023-04-25T09:39:55;10.32;65.55
35085;SHT85;21267;51.032;6.998;2023-04-25T09:42:26;11.22;61.86
35085;SHT85;21267;51.032;6.998;2023-04-25T09:44:56;12.79;57.33
35085;SHT85;21267;51.032;6.998;2023-04-25T09:47:24;12.41;54.41
35085;SHT85;21267;51.032;6.998;2023-04-25T09:49:52;11.56;54.78
35085;SHT85;21267;51.032;6.998;2023-04-25T09:52:20;10.94;57.50
35085;SHT85;21267;51.032;6.998;2023-04-25T09:54:50;10.60;59.57
35085;SHT85;21267;51.032;6.998;2023-04-25T09:57:22;10.12;60.82
35085;SHT85;21267;51.032;6.998;2023-04-25T09:59:52;10.09;59.70
35085;SHT85;21267;51.032;6.998;2023-04-25T10:02:21;10.42;59.72
35085;SHT85;21267;51.032;6.998;2023-04-25T10:04:49;10.30;59.50
35085;SHT85;21267;51.032;6.998;2023-04-25T10:07:25;10.32;59.67
35085;SHT85;21267;51.032;6.998;2023-04-25T10:10:03;10.73;57.58
35085;SHT85;21267;51.032;6.998;2023-04-25T10:12:30;10.90;57.25
35085;SHT85;21267;51.032;6.998;2023-04-25T10:14:58;10.77;58.17
35085;SHT85;21267;51.032;6.998;2023-04-25T10:17:26;11.10;57.24
35085;SHT85;21267;51.032;6.998;2023-04-25T10:19:55;11.18;57.48
35085;SHT85;21267;51.032;6.998;2023-04-25T10:22:34;11.83;55.89
35085;SHT85;21267;51.032;6.998;2023-04-25T10:25:02;13.51;53.49
35085;SHT85;21267;51.032;6.998;2023-04-25T10:27:33;12.51;52.87
35085;SHT85;21267;51.032;6.998;2023-04-25T10:30:01;11.63;55.72
35085;SHT85;21267;51.032;6.998;2023-04-25T10:32:31;10.81;57.78
35085;SHT85;21267;51.032;6.998;2023-04-25T10:40:23;10.39;59.83
35085;SHT85;21267;51.032;6.998;2023-04-25T10:42:53;10.21;59.72
35085;SHT85;21267;51.032;6.998;2023-04-25T10:45:23;10.12;60.21
35085;SHT85;21267;51.032;6.998;2023-04-25T10:47:50;10.05;60.11
35085;SHT85;21267;51.032;6.998;2023-04-25T10:50:17;10.06;59.89
35085;SHT85;21267;51.032;6.998;2023-04-25T10:52:44;10.39;59.83
35085;SHT85;21267;51.032;6.998;2023-04-25T10:55:11;10.56;59.93
35085;SHT85;21267;51.032;6.998;2023-04-25T10:57:42;10.42;58.26
35085;SHT85;21267;51.032;6.998;2023-04-25T11:00:17;10.56;57.12
35085;SHT85;21267;51.032;6.998;2023-04-25T11:05:22;11.04;56.20
35085;SHT85;21267;51.032;6.998;2023-04-25T11:07:51;11.22;56.77
35085;SHT85;21267;51.032;6.998;2023-04-25T11:10:33;11.32;56.99
35085;SHT85;21267;51.032;6.998;2023-04-25T11:13:03;12.90;54.36
35085;SHT85;21267;51.032;6.998;2023-04-25T11:15:30;12.76;51.84
35085;SHT85;21267;51.032;6.998;2023-04-25T11:17:56;12.18;52.57
35085;SHT85;21267;51.032;6.998;2023-04-25T11:20:25;12.49;52.67
35085;SHT85;21267;51.032;6.998;2023-04-25T11:22:53;12.24;53.41
35085;SHT85;21267;51.032;6.998;2023-04-25T11:25:24;11.83;54.05
35085;SHT85;21267;51.032;6.998;2023-04-25T11:27:51;12.62;52.25
35085;SHT85;21267;51.032;6.998;2023-04-25T11:30:20;13.31;49.26
35085;SHT85;21267;51.032;6.998;2023-04-25T11:32:47;13.20;48.58
35085;SHT85;21267;51.032;6.998;2023-04-25T11:35:14;12.80;49.48
35085;SHT85;21267;51.032;6.998;2023-04-25T11:37:43;12.69;49.52
35085;SHT85;21267;51.032;6.998;2023-04-25T11:40:10;12.62;49.90
35085;SHT85;21267;51.032;6.998;2023-04-25T11:42:47;12.45;51.82
35085;SHT85;21267;51.032;6.998;2023-04-25T11:45:14;12.59;50.70
35085;SHT85;21267;51.032;6.998;2023-04-25T11:47:41;12.59;50.45
35085;SHT85;21267;51.032;6.998;2023-04-25T11:50:08;12.86;49.43
35085;SHT85;21267;51.032;6.998;2023-04-25T11:52:46;13.57;47.10
35085;SHT85;21267;51.032;6.998;2023-04-25T11:55:15;14.22;46.24
35085;SHT85;21267;51.032;6.998;2023-04-25T11:57:44;14.44;45.06
35085;SHT85;21267;51.032;6.998;2023-04-25T12:00:20;14.44;44.83
35085;SHT85;21267;51.032;6.998;2023-04-25T12:02:52;14.40;44.73
35085;SHT85;21267;51.032;6.998;2023-04-25T12:05:20;13.43;46.97
35085;SHT85;21267;51.032;6.998;2023-04-25T12:07:52;13.43;46.94
35085;SHT85;21267;51.032;6.998;2023-04-25T12:10:20;13.12;47.49
35085;SHT85;21267;51.032;6.998;2023-04-25T12:12:48;13.34;48.29
35085;SHT85;21267;51.032;6.998;2023-04-25T12:15:23;13.96;47.47
35085;SHT85;21267;51.032;6.998;2023-04-25T12:17:52;14.16;46.21
35085;SHT85;21267;51.032;6.998;2023-04-25T12:20:24;13.67;45.88
35085;SHT85;21267;51.032;6.998;2023-04-25T12:22:51;13.28;46.57
35085;SHT85;21267;51.032;6.998;2023-04-25T12:30:56;13.09;47.52
35085;SHT85;21267;51.032;6.998;2023-04-25T12:33:25;12.45;49.11
35085;SHT85;21267;51.032;6.998;2023-04-25T12:35:54;12.31;49.77
35085;SHT85;21267;51.032;6.998;2023-04-25T12:40:49;11.48;52.17
35085;SHT85;21267;51.032;6.998;2023-04-25T12:43:16;11.34;53.48
35085;SHT85;21267;51.032;6.998;2023-04-25T12:45:44;11.32;53.78
35085;SHT85;21267;51.032;6.998;2023-04-25T12:48:11;10.95;54.55
35085;SHT85;21267;51.032;6.998;2023-04-25T12:50:39;10.80;55.06
35085;SHT85;21267;51.032;6.998;2023-04-25T12:53:06;11.06;55.40
35085;SHT85;21267;51.032;6.998;2023-04-25T12:55:32;11.07;56.25
35085;SHT85;21267;51.032;6.998;2023-04-25T12:57:59;11.08;56.89
35085;SHT85;21267;51.032;6.998;2023-04-25T13:00:27;11.01;56.67
35085;SHT85;21267;51.032;6.998;2023-04-25T13:02:53;11.10;54.98
35085;SHT85;21267;51.032;6.998;2023-04-25T13:05:21;11.43;55.16
35085;SHT85;21267;51.032;6.998;2023-04-25T13:07:51;11.29;54.10
35085;SHT85;21267;51.032;6.998;2023-04-25T13:10:17;11.53;53.63
35085;SHT85;21267;51.032;6.998;2023-04-25T13:12:44;12.11;53.31
35085;SHT85;21267;51.032;6.998;2023-04-25T13:15:12;12.04;53.50
35085;SHT85;21267;51.032;6.998;2023-04-25T13:17:39;12.59;53.77
35085;SHT85;21267;51.032;6.998;2023-04-25T13:20:07;12.18;53.59
35085;SHT85;21267;51.032;6.998;2023-04-25T13:22:38;12.61;52.99
35085;SHT85;21267;51.032;6.998;2023-04-25T13:25:05;12.97;55.03
35085;SHT85;21267;51.032;6.998;2023-04-25T13:27:32;13.34;57.65
35085;SHT85;21267;51.032;6.998;2023-04-25T13:30:00;13.88;55.98
35085;SHT85;21267;51.032;6.998;2023-04-25T13:32:31;14.26;55.71
35085;SHT85;21267;51.032;6.998;2023-04-25T13:34:59;12.93;57.76
35085;SHT85;21267;51.032;6.998;2023-04-25T13:37:27;13.96;56.83
35085;SHT85;21267;51.032;6.998;2023-04-25T13:39:54;14.34;55.66
35085;SHT85;21267;51.032;6.998;2023-04-25T13:42:23;15.57;53.95
35085;SHT85;21267;51.032;6.998;2023-04-25T13:44:54;14.30;53.45
35085;SHT85;21267;51.032;6.998;2023-04-25T13:47:22;14.60;54.35
35085;SHT85;21267;51.032;6.998;2023-04-25T13:49:51;14.68;53.88
35085;SHT85;21267;51.032;6.998;2023-04-25T13:52:18;14.26;55.14
35085;SHT85;21267;51.032;6.998;2023-04-25T13:54:44;14.73;53.28
35085;SHT85;21267;51.032;6.998;2023-04-25T13:57:11;14.66;50.71
35085;SHT85;21267;51.032;6.998;2023-04-25T13:59:38;14.73;51.17
35085;SHT85;21267;51.032;6.998;2023-04-25T14:02:06;13.82;52.91
35085;SHT85;21267;51.032;6.998;2023-04-25T14:04:33;13.44;54.10
35085;SHT85;21267;51.032;6.998;2023-04-25T14:06:59;13.09;54.13
35085;SHT85;21267;51.032;6.998;2023-04-25T14:09:27;12.21;54.00
35085;SHT85;21267;51.032;6.998;2023-04-25T14:11:55;11.90;55.63
35085;SHT85;21267;51.032;6.998;2023-04-25T14:14:22;11.89;55.78
35085;SHT85;21267;51.032;6.998;2023-04-25T14:16:49;11.89;55.97
35085;SHT85;21267;51.032;6.998;2023-04-25T14:19:20;12.28;56.08
35085;SHT85;21267;51.032;6.998;2023-04-25T14:21:47;12.34;55.50
35085;SHT85;21267;51.032;6.998;2023-04-25T14:24:14;12.89;55.11
35085;SHT85;21267;51.032;6.998;2023-04-25T14:26:41;13.22;53.64
35085;SHT85;21267;51.032;6.998;2023-04-25T14:29:09;13.94;52.37
35085;SHT85;21267;51.032;6.998;2023-04-25T14:31:39;13.71;51.57
35085;SHT85;21267;51.032;6.998;2023-04-25T14:34:07;13.68;48.81
35085;SHT85;21267;51.032;6.998;2023-04-25T14:36:37;13.13;46.94
35085;SHT85;21267;51.032;6.998;2023-04-25T14:39:06;12.59;48.55
35085;SHT85;21267;51.032;6.998;2023-04-25T14:41:33;12.18;49.93
35085;SHT85;21267;51.032;6.998;2023-04-25T14:43:59;12.27;49.40
35085;SHT85;21267;51.032;6.998;2023-04-25T14:46:26;12.45;49.15
35085;SHT85;21267;51.032;6.998;2023-04-25T14:48:53;12.73;50.01
35085;SHT85;21267;51.032;6.998;2023-04-25T14:51:22;13.33;49.54
35085;SHT85;21267;51.032;6.998;2023-04-25T14:53:49;14.33;48.21
35085;SHT85;21267;51.032;6.998;2023-04-25T14:56:17;14.52;47.57
35085;SHT85;21267;51.032;6.998;2023-04-25T14:58:44;13.68;47.97
35085;SHT85;21267;51.032;6.998;2023-04-25T15:01:12;14.19;48.19
35085;SHT85;21267;51.032;6.998;2023-04-25T15:03:42;14.23;47.61
35085;SHT85;21267;51.032;6.998;2023-04-25T15:06:09;14.33;48.24
35085;SHT85;21267;51.032;6.998;2023-04-25T15:08:36;14.17;49.23
35085;SHT85;21267;51.032;6.998;2023-04-25T15:11:03;15.01;48.42
35085;SHT85;21267;51.032;6.998;2023-04-25T15:13:30;14.81;48.41
35085;SHT85;21267;51.032;6.998;2023-04-25T15:15:57;14.40;49.42
35085;SHT85;21267;51.032;6.998;2023-04-25T15:18:24;13.48;50.25
35085;SHT85;21267;51.032;6.998;2023-04-25T15:20:52;13.79;50.44
35085;SHT85;21267;51.032;6.998;2023-04-25T15:23:20;14.25;49.84
35085;SHT85;21267;51.032;6.998;2023-04-25T15:25:49;13.72;51.47
35085;SHT85;21267;51.032;6.998;2023-04-25T15:28:16;12.97;53.96
35085;SHT85;21267;51.032;6.998;2023-04-25T15:30:43;13.09;54.76
35085;SHT85;21267;51.032;6.998;2023-04-25T15:33:10;12.71;56.43
35085;SHT85;21267;51.032;6.998;2023-04-25T15:35:37;12.48;55.93
35085;SHT85;21267;51.032;6.998;2023-04-25T15:38:04;12.69;55.89
35085;SHT85;21267;51.032;6.998;2023-04-25T15:40:30;12.65;57.01
35085;SHT85;21267;51.032;6.998;2023-04-25T15:42:57;12.13;54.75
35085;SHT85;21267;51.032;6.998;2023-04-25T15:45:25;11.97;54.71
35085;SHT85;21267;51.032;6.998;2023-04-25T15:47:55;12.01;54.32
35085;SHT85;21267;51.032;6.998;2023-04-25T15:50:22;12.25;53.60
35085;SHT85;21267;51.032;6.998;2023-04-25T15:52:50;12.58;52.69
35085;SHT85;21267;51.032;6.998;2023-04-25T15:55:18;12.49;52.88
35085;SHT85;21267;51.032;6.998;2023-04-25T15:57:44;12.25;53.33
35085;SHT85;21267;51.032;6.998;2023-04-25T16:00:12;12.14;54.04
35085;SHT85;21267;51.032;6.998;2023-04-25T16:02:42;11.59;56.62
35085;SHT85;21267;51.032;6.998;2023-04-25T16:05:10;11.79;56.86
35085;SHT85;21267;51.032;6.998;2023-04-25T16:07:39;11.71;57.40
35085;SHT85;21267;51.032;6.998;2023-04-25T16:10:08;11.83;56.90